sensor_id;sensor_type;location;lat;lon;timestamp;temperature;humidity
22185;DHT22;11258;52.516;13.318;2022-12-18T00:02:22;-4.00;99.90
22185;DHT22;11258;52.516;13.318;2022-12-18T00:04:48;-3.80;99.90
22185;DHT22;11258;52.516;13.318;2022-12-18T00:07:13;-3.90;99.90
22185;DHT22;11258;52.516;13.318;2022-12-18T00:09:39;-3.80;99.90
22185;DHT22;11258;52.516;13.318;2022-12-18T00:12:05;-4.20;99.90
22185;DHT22;11258;52.516;13.318;2022-12-18T00:14:30;-4.30;99.90
22185;DHT22;11258;52.516;13.318;2022-12-18T00:16:56;-4.20;99.90
22185;DHT22;11258;52.516;13.318;2022-12-18T00:19:23;-4.30;99.90
22185;DHT22;11258;52.516;13.318;2022-12-18T00:21:49;-4.40;99.90
22185;DHT22;11258;52.516;13.318;2022-12-18T00:24:14;-4.50;99.90
22185;DHT22;11258;52.516;13.318;2022-12-18T00:26:40;-4.30;99.90
22185;DHT22;11258;52.516;13.318;2022-12-18T00:29:10;-4.30;99.90
22185;DHT22;11258;52.516;13.318;2022-12-18T00:31:37;-4.30;99.90
22185;DHT22;11258;52.516;13.318;2022-12-18T00:34:03;-4.40;99.90
22185;DHT22;11258;52.516;13.318;2022-12-18T00:36:31;-4.40;99.90
22185;DHT22;11258;52.516;13.318;2022-12-18T00:38:59;-4.60;99.90
22185;DHT22;11258;52.516;13.318;2022-12-18T00:41:25;-4.60;99.90
22185;DHT22;11258;52.516;13.318;2022-12-18T00:44:12;-4.70;99.90
22185;DHT22;11258;52.516;13.318;2022-12-18T00:46:37;-4.60;99.90
22185;DHT22;11258;52.516;13.318;2022-12-18T00:49:03;-4.60;99.90
22185;DHT22;11258;52.516;13.318;2022-12-18T00:51:29;-4.50;99.90
22185;DHT22;11258;52.516;13.318;2022-12-18T00:53:55;-4.70;99.90
22185;DHT22;11258;52.516;13.318;2022-12-18T00:56:20;-4.80;99.90
22185;DHT22;11258;52.516;13.318;2022-12-18T00:58:46;-4.90;99.90
22185;DHT22;11258;52.516;13.318;2022-12-18T01:01:12;-4.80;99.90
22185;DHT22;11258;52.516;13.318;2022-12-18T01:03:37;-4.80;99.90
22185;DHT22;11258;52.516;13.318;2022-12-18T01:06:08;-4.70;99.90
22185;DHT22;11258;52.516;13.318;2022-12-18T01:08:34;-4.70;99.90
22185;DHT22;11258;52.516;13.318;2022-12-18T01:11:00;-4.70;99.90
22185;DHT22;11258;52.516;13.318;2022-12-18T01:13:26;-4.80;99.90
22185;DHT22;11258;52.516;13.318;2022-12-18T01:15:52;-4.70;99.90
22185;DHT22;11258;52.516;13.318;2022-12-18T01:18:18;-4.60;99.90
22185;DHT22;11258;52.516;13.318;2022-12-18T01:20:43;-4.50;99.90
22185;DHT22;11258;52.516;13.318;2022-12-18T01:23:09;-4.40;99.90
22185;DHT22;11258;52.516;13.318;2022-12-18T01:25:38;-4.50;99.90
22185;DHT22;11258;52.516;13.318;2022-12-18T01:28:03;-4.50;99.90
22185;DHT22;11258;52.516;13.318;2022-12-18T01:30:29;-4.50;99.90
22185;DHT22;11258;52.516;13.318;2022-12-18T01:32:55;-4.60;99.90
22185;DHT22;11258;52.516;13.318;2022-12-18T01:35:20;-4.50;99.90
22185;DHT22;11258;52.516;13.318;2022-12-18T01:37:46;-4.50;99.90
22185;DHT22;11258;52.516;13.318;2022-12-18T01:40:12;-4.60;99.90
22185;DHT22;11258;52.516;13.318;2022-12-18T01:42:38;-4.70;99.90
22185;DHT22;11258;52.516;13.318;2022-12-18T01:47:54;-4.80;99.90
22185;DHT22;11258;52.516;13.318;2022-12-18T01:50:40;-4.70;99.90
22185;DHT22;11258;52.516;13.318;2022-12-18T01:53:09;-4.60;99.90
22185;DHT22;11258;52.516;13.318;2022-12-18T01:55:40;-4.60;99.90
22185;DHT22;11258;52.516;13.318;2022-12-18T01:58:07;-4.70;99.90
22185;DHT22;11258;52.516;13.318;2022-12-18T02:00:33;-4.70;99.90
22185;DHT22;11258;52.516;13.318;2022-12-18T02:02:59;-4.80;99.90
22185;DHT22;11258;52.516;13.318;2022-12-18T02:08:24;-4.70;99.90
22185;DHT22;11258;52.516;13.318;2022-12-18T02:11:16;-4.80;99.90
22185;DHT22;11258;52.516;13.318;2022-12-18T02:16:29;-4.70;99.90
22185;DHT22;11258;52.516;13.318;2022-12-18T02:19:00;-4.60;99.90
22185;DHT22;11258;52.516;13.318;2022-12-18T02:21:51;-4.70;99.90
22185;DHT22;11258;52.516;13.318;2022-12-18T02:24:38;-4.70;99.90
22185;DHT22;11258;52.516;13.318;2022-12-18T02:27:10;-4.80;99.90
22185;DHT22;11258;52.516;13.318;2022-12-18T02:29:57;-4.60;99.90
22185;DHT22;11258;52.516;13.318;2022-12-18T02:32:27;-4.60;99.90
22185;DHT22;11258;52.516;13.318;2022-12-18T02:34:56;-4.60;99.90
22185;DHT22;11258;52.516;13.318;2022-12-18T02:37:23;-4.60;99.90
22185;DHT22;11258;52.516;13.318;2022-12-18T02:39:51;-4.60;99.90
22185;DHT22;11258;52.516;13.318;2022-12-18T02:42:18;-4.60;99.90
22185;DHT22;11258;52.516;13.318;2022-12-18T02:44:47;-4.90;99.90
22185;DHT22;11258;52.516;13.318;2022-12-18T02:47:15;-5.00;99.90
22185;DHT22;11258;52.516;13.318;2022-12-18T02:49:56;-5.00;99.90
22185;DHT22;11258;52.516;13.318;2022-12-18T02:52:34;-5.00;99.90
22185;DHT22;11258;52.516;13.318;2022-12-18T03:01:16;-5.10;99.90
22185;DHT22;11258;52.516;13.318;2022-12-18T03:03:47;-5.10;99.90
22185;DHT22;11258;52.516;13.318;2022-12-18T03:06:25;-5.00;99.90
22185;DHT22;11258;52.516;13.318;2022-12-18T03:08:58;-5.00;99.90
22185;DHT22;11258;52.516;13.318;2022-12-18T03:11:24;-4.90;99.90
22185;DHT22;11258;52.516;13.318;2022-12-18T03:14:12;-4.80;99.90
22185;DHT22;11258;52.516;13.318;2022-12-18T03:16:41;-4.70;99.90
22185;DHT22;11258;52.516;13.318;2022-12-18T03:19:11;-4.70;99.90
22185;DHT22;11258;52.516;13.318;2022-12-18T03:21:47;-4.70;99.90
22185;DHT22;11258;52.516;13.318;2022-12-18T03:24:15;-4.80;99.90
22185;DHT22;11258;52.516;13.318;2022-12-18T03:26:44;-4.80;99.90
22185;DHT22;11258;52.516;13.318;2022-12-18T03:29:28;-4.80;99.90
22185;DHT22;11258;52.516;13.318;2022-12-18T03:32:03;-4.80;99.90
22185;DHT22;11258;52.516;13.318;2022-12-18T03:34:33;-4.90;99.90
22185;DHT22;11258;52.516;13.318;2022-12-18T03:37:00;-4.90;99.90
22185;DHT22;11258;52.516;13.318;2022-12-18T03:39:26;-5.00;99.90
22185;DHT22;11258;52.516;13.318;2022-12-18T03:42:08;-5.10;99.90
22185;DHT22;11258;52.516;13.318;2022-12-18T03:44:44;-5.20;99.90
22185;DHT22;11258;52.516;13.318;2022-12-18T03:47:14;-5.10;99.90
22185;DHT22;11258;52.516;13.318;2022-12-18T03:52:19;-5.10;99.90
22185;DHT22;11258;52.516;13.318;2022-12-18T03:54:46;-5.20;99.90
22185;DHT22;11258;52.516;13.318;2022-12-18T03:57:21;-5.10;99.90
22185;DHT22;11258;52.516;13.318;2022-12-18T03:59:52;-5.40;99.90
22185;DHT22;11258;52.516;13.318;2022-12-18T04:02:21;-5.20;99.90
22185;DHT22;11258;52.516;13.318;2022-12-18T04:04:50;-5.30;99.90
22185;DHT22;11258;52.516;13.318;2022-12-18T04:07:18;-5.30;99.90
22185;DHT22;11258;52.516;13.318;2022-12-18T04:09:45;-5.50;99.90
22185;DHT22;11258;52.516;13.318;2022-12-18T04:12:11;-5.70;99.90
22185;DHT22;11258;52.516;13.318;2022-12-18T04:14:36;-5.50;99.90
22185;DHT22;11258;52.516;13.318;2022-12-18T04:17:03;-5.60;99.90
22185;DHT22;11258;52.516;13.318;2022-12-18T04:19:29;-5.50;99.90
22185;DHT22;11258;52.516;13.318;2022-12-18T04:21:54;-5.40;99.90
22185;DHT22;11258;52.516;13.318;2022-12-18T04:24:20;-5.50;99.90
22185;DHT22;11258;52.516;13.318;2022-12-18T04:26:45;-5.50;99.90
22185;DHT22;11258;52.516;13.318;2022-12-18T04:29:11;-5.50;99.90
22185;DHT22;11258;52.516;13.318;2022-12-18T04:31:37;-5.50;99.90
22185;DHT22;11258;52.516;13.318;2022-12-18T04:34:03;-5.50;99.90
22185;DHT22;11258;52.516;13.318;2022-12-18T04:36:29;-5.50;99.90
22185;DHT22;11258;52.516;13.318;2022-12-18T04:38:54;-5.50;99.90
22185;DHT22;11258;52.516;13.318;2022-12-18T04:41:20;-5.60;99.90
22185;DHT22;11258;52.516;13.318;2022-12-18T04:43:46;-5.60;99.90
22185;DHT22;11258;52.516;13.318;2022-12-18T04:46:11;-5.60;99.90
22185;DHT22;11258;52.516;13.318;2022-12-18T04:48:37;-5.50;99.90
22185;DHT22;11258;52.516;13.318;2022-12-18T04:51:04;-5.50;99.90
22185;DHT22;11258;52.516;13.318;2022-12-18T04:53:30;-5.50;99.90
22185;DHT22;11258;52.516;13.318;2022-12-18T04:58:28;-5.50;99.90
22185;DHT22;11258;52.516;13.318;2022-12-18T05:00:54;-5.40;99.90
22185;DHT22;11258;52.516;13.318;2022-12-18T05:03:20;-5.40;99.90
22185;DHT22;11258;52.516;13.318;2022-12-18T05:05:48;-5.60;99.90
22185;DHT22;11258;52.516;13.318;2022-12-18T05:08:14;-5.60;99.90
22185;DHT22;11258;52.516;13.318;2022-12-18T05:10:39;-5.50;99.90
22185;DHT22;11258;52.516;13.318;2022-12-18T05:13:05;-5.50;99.90
22185;DHT22;11258;52.516;13.318;2022-12-18T05:15:32;-5.40;99.90
22185;DHT22;11258;52.516;13.318;2022-12-18T05:17:58;-5.40;99.90
22185;DHT22;11258;52.516;13.318;2022-12-18T05:20:24;-5.50;99.90
22185;DHT22;11258;52.516;13.318;2022-12-18T05:22:51;-5.60;99.90
22185;DHT22;11258;52.516;13.318;2022-12-18T05:25:17;-5.50;99.90
22185;DHT22;11258;52.516;13.318;2022-12-18T05:27:42;-5.60;99.90
22185;DHT22;11258;52.516;13.318;2022-12-18T05:30:09;-5.40;99.90
22185;DHT22;11258;52.516;13.318;2022-12-18T05:32:35;-5.40;99.90
22185;DHT22;11258;52.516;13.318;2022-12-18T05:35:00;-5.40;99.90
22185;DHT22;11258;52.516;13.318;2022-12-18T05:37:26;-5.40;99.90
22185;DHT22;11258;52.516;13.318;2022-12-18T05:39:52;-5.40;99.90
22185;DHT22;11258;52.516;13.318;2022-12-18T05:42:17;-5.30;99.90
22185;DHT22;11258;52.516;13.318;2022-12-18T05:44:43;-5.40;99.90
22185;DHT22;11258;52.516;13.318;2022-12-18T05:47:09;-5.40;99.90
22185;DHT22;11258;52.516;13.318;2022-12-18T05:49:35;-5.30;99.90
22185;DHT22;11258;52.516;13.318;2022-12-18T05:52:00;-5.40;99.90
22185;DHT22;11258;52.516;13.318;2022-12-18T05:54:29;-5.30;99.90
22185;DHT22;11258;52.516;13.318;2022-12-18T05:56:55;-5.20;99.90
22185;DHT22;11258;52.516;13.318;2022-12-18T05:59:20;-5.20;99.90
22185;DHT22;11258;52.516;13.318;2022-12-18T06:01:46;-5.10;99.90
22185;DHT22;11258;52.516;13.318;2022-12-18T06:04:12;-5.30;99.90
22185;DHT22;11258;52.516;13.318;2022-12-18T06:06:37;-5.20;99.90
22185;DHT22;11258;52.516;13.318;2022-12-18T06:09:03;-5.20;99.90
22185;DHT22;11258;52.516;13.318;2022-12-18T06:11:34;-5.30;99.90
22185;DHT22;11258;52.516;13.318;2022-12-18T06:14:01;-5.30;99.90
22185;DHT22;11258;52.516;13.318;2022-12-18T06:16:28;-5.30;99.90
22185;DHT22;11258;52.516;13.318;2022-12-18T06:18:56;-5.30;99.90
22185;DHT22;11258;52.516;13.318;2022-12-18T06:21:22;-5.40;99.90
22185;DHT22;11258;52.516;13.318;2022-12-18T06:23:48;-5.40;99.90
22185;DHT22;11258;52.516;13.318;2022-12-18T06:26:14;-5.30;99.90
22185;DHT22;11258;52.516;13.318;2022-12-18T06:28:40;-5.30;99.90
22185;DHT22;11258;52.516;13.318;2022-12-18T06:31:06;-5.40;99.90
22185;DHT22;11258;52.516;13.318;2022-12-18T06:33:32;-5.40;99.90
22185;DHT22;11258;52.516;13.318;2022-12-18T06:36:17;-5.30;99.90
22185;DHT22;11258;52.516;13.318;2022-12-18T06:38:43;-5.30;99.90
22185;DHT22;11258;52.516;13.318;2022-12-18T06:41:20;-5.20;99.90
22185;DHT22;11258;52.516;13.318;2022-12-18T06:43:46;-5.30;99.90
22185;DHT22;11258;52.516;13.318;2022-12-18T06:46:12;-5.40;99.90
22185;DHT22;11258;52.516;13.318;2022-12-18T06:48:38;-5.40;99.90
22185;DHT22;11258;52.516;13.318;2022-12-18T06:51:04;-5.40;99.90
22185;DHT22;11258;52.516;13.318;2022-12-18T06:53:30;-5.30;99.90
22185;DHT22;11258;52.516;13.318;2022-12-18T06:56:04;-5.30;99.90
22185;DHT22;11258;52.516;13.318;2022-12-18T06:58:30;-5.40;99.90
22185;DHT22;11258;52.516;13.318;2022-12-18T07:01:00;-5.40;99.90
22185;DHT22;11258;52.516;13.318;2022-12-18T07:03:27;-5.30;99.90
22185;DHT22;11258;52.516;13.318;2022-12-18T07:05:52;-5.30;99.90
22185;DHT22;11258;52.516;13.318;2022-12-18T07:08:18;-5.20;99.90
22185;DHT22;11258;52.516;13.318;2022-12-18T07:10:43;-5.30;99.90
22185;DHT22;11258;52.516;13.318;2022-12-18T07:13:09;-5.30;99.90
22185;DHT22;11258;52.516;13.318;2022-12-18T07:15:35;-5.40;99.90
22185;DHT22;11258;52.516;13.318;2022-12-18T07:18:01;-5.40;99.90
22185;DHT22;11258;52.516;13.318;2022-12-18T07:20:26;-5.40;99.90
22185;DHT22;11258;52.516;13.318;2022-12-18T07:22:52;-5.60;99.90
22185;DHT22;11258;52.516;13.318;2022-12-18T07:25:17;-5.50;99.90
22185;DHT22;11258;52.516;13.318;2022-12-18T07:27:43;-5.60;99.90
22185;DHT22;11258;52.516;13.318;2022-12-18T07:30:09;-5.50;99.90
22185;DHT22;11258;52.516;13.318;2022-12-18T07:32:35;-5.50;99.90
22185;DHT22;11258;52.516;13.318;2022-12-18T07:35:01;-5.40;99.90
22185;DHT22;11258;52.516;13.318;2022-12-18T07:37:26;-5.30;99.90
22185;DHT22;11258;52.516;13.318;2022-12-18T07:39:52;-5.40;99.90
22185;DHT22;11258;52.516;13.318;2022-12-18T07:42:17;-5.30;99.90
22185;DHT22;11258;52.516;13.318;2022-12-18T07:44:59;-5.20;99.90
22185;DHT22;11258;52.516;13.318;2022-12-18T07:47:25;-5.30;99.90
22185;DHT22;11258;52.516;13.318;2022-12-18T07:49:51;-5.30;99.90
22185;DHT22;11258;52.516;13.318;2022-12-18T07:52:17;-5.30;99.90
22185;DHT22;11258;52.516;13.318;2022-12-18T07:54:42;-5.40;99.90
22185;DHT22;11258;52.516;13.318;2022-12-18T07:57:08;-5.50;99.90
22185;DHT22;11258;52.516;13.318;2022-12-18T07:59:34;-5.50;99.90
22185;DHT22;11258;52.516;13.318;2022-12-18T08:02:00;-5.40;99.90
22185;DHT22;11258;52.516;13.318;2022-12-18T08:04:26;-5.50;99.90
22185;DHT22;11258;52.516;13.318;2022-12-18T08:06:51;-5.40;99.90
22185;DHT22;11258;52.516;13.318;2022-12-18T08:09:17;-5.40;99.90
22185;DHT22;11258;52.516;13.318;2022-12-18T08:11:43;-5.30;99.90
22185;DHT22;11258;52.516;13.318;2022-12-18T08:14:09;-5.40;99.90
22185;DHT22;11258;52.516;13.318;2022-12-18T08:16:35;-5.40;99.90
22185;DHT22;11258;52.516;13.318;2022-12-18T08:19:01;-5.30;99.90
22185;DHT22;11258;52.516;13.318;2022-12-18T08:21:29;-5.20;99.90
22185;DHT22;11258;52.516;13.318;2022-12-18T08:23:56;-5.30;99.90
22185;DHT22;11258;52.516;13.318;2022-12-18T08:26:23;-5.30;99.90
22185;DHT22;11258;52.516;13.318;2022-12-18T08:28:50;-5.20;99.90
22185;DHT22;11258;52.516;13.318;2022-12-18T08:31:15;-5.20;99.90
22185;DHT22;11258;52.516;13.318;2022-12-18T08:33:41;-5.20;99.90
22185;DHT22;11258;52.516;13.318;2022-12-18T08:36:08;-5.20;99.90
22185;DHT22;11258;52.516;13.318;2022-12-18T08:38:35;-5.10;99.90
22185;DHT22;11258;52.516;13.318;2022-12-18T08:41:05;-5.00;99.90
22185;DHT22;11258;52.516;13.318;2022-12-18T08:43:31;-5.00;99.90
22185;DHT22;11258;52.516;13.318;2022-12-18T08:46:19;-5.20;99.90
22185;DHT22;11258;52.516;13.318;2022-12-18T08:48:45;-5.20;99.90
22185;DHT22;11258;52.516;13.318;2022-12-18T08:51:10;-5.20;99.90
22185;DHT22;11258;52.516;13.318;2022-12-18T08:53:36;-5.10;99.90
22185;DHT22;11258;52.516;13.318;2022-12-18T08:56:03;-5.00;99.90
22185;DHT22;11258;52.516;13.318;2022-12-18T08:58:29;-5.00;99.90
22185;DHT22;11258;52.516;13.318;2022-12-18T09:01:00;-4.90;99.90
22185;DHT22;11258;52.516;13.318;2022-12-18T09:03:26;-4.90;99.90
22185;DHT22;11258;52.516;13.318;2022-12-18T09:05:51;-5.00;99.90
22185;DHT22;11258;52.516;13.318;2022-12-18T09:08:17;-4.90;99.90
22185;DHT22;11258;52.516;13.318;2022-12-18T09:10:48;-4.80;99.90
22185;DHT22;11258;52.516;13.318;2022-12-18T09:13:14;-4.80;99.90
22185;DHT22;11258;52.516;13.318;2022-12-18T09:15:45;-4.90;99.90
22185;DHT22;11258;52.516;13.318;2022-12-18T09:18:12;-4.90;99.90
22185;DHT22;11258;52.516;13.318;2022-12-18T09:20:38;-4.80;99.90
22185;DHT22;11258;52.516;13.318;2022-12-18T09:23:05;-4.70;99.90
22185;DHT22;11258;52.516;13.318;2022-12-18T09:25:31;-5.00;99.90
22185;DHT22;11258;52.516;13.318;2022-12-18T09:27:59;-5.20;99.90
22185;DHT22;11258;52.516;13.318;2022-12-18T09:30:25;-5.30;99.90
22185;DHT22;11258;52.516;13.318;2022-12-18T09:32:54;-5.20;99.90
22185;DHT22;11258;52.516;13.318;2022-12-18T09:35:19;-5.20;99.90
22185;DHT22;11258;52.516;13.318;2022-12-18T09:37:45;-5.20;99.90
22185;DHT22;11258;52.516;13.318;2022-12-18T09:40:18;-5.10;99.90
22185;DHT22;11258;52.516;13.318;2022-12-18T09:43:05;-5.00;99.90
22185;DHT22;11258;52.516;13.318;2022-12-18T09:45:40;-5.00;99.90
22185;DHT22;11258;52.516;13.318;2022-12-18T09:48:34;-4.80;99.90
22185;DHT22;11258;52.516;13.318;2022-12-18T09:51:05;-4.80;99.90
22185;DHT22;11258;52.516;13.318;2022-12-18T09:53:37;-4.80;99.90
22185;DHT22;11258;52.516;13.318;2022-12-18T09:56:05;-4.60;99.90
22185;DHT22;11258;52.516;13.318;2022-12-18T10:00:58;-4.70;99.90
22185;DHT22;11258;52.516;13.318;2022-12-18T10:03:25;-4.60;99.90
22185;DHT22;11258;52.516;13.318;2022-12-18T10:08:53;-4.70;99.90
22185;DHT22;11258;52.516;13.318;2022-12-18T10:14:29;-4.40;99.90
22185;DHT22;11258;52.516;13.318;2022-12-18T10:19:40;-4.50;99.90
22185;DHT22;11258;52.516;13.318;2022-12-18T10:25:22;-4.30;99.90
22185;DHT22;11258;52.516;13.318;2022-12-18T10:27:52;-4.30;99.90
22185;DHT22;11258;52.516;13.318;2022-12-18T10:30:21;-4.30;99.90
22185;DHT22;11258;52.516;13.318;2022-12-18T10:32:47;-4.30;99.90
22185;DHT22;11258;52.516;13.318;2022-12-18T10:35:19;-4.20;99.90
22185;DHT22;11258;52.516;13.318;2022-12-18T10:38:05;-4.10;99.90
22185;DHT22;11258;52.516;13.318;2022-12-18T10:40:32;-4.20;99.90
22185;DHT22;11258;52.516;13.318;2022-12-18T10:43:09;-4.20;99.90
22185;DHT22;11258;52.516;13.318;2022-12-18T10:45:36;-4.20;99.90
22185;DHT22;11258;52.516;13.318;2022-12-18T10:48:01;-4.30;99.90
22185;DHT22;11258;52.516;13.318;2022-12-18T10:50:31;-4.10;99.90
22185;DHT22;11258;52.516;13.318;2022-12-18T10:52:59;-4.10;99.90
22185;DHT22;11258;52.516;13.318;2022-12-18T10:55:30;-4.10;99.90
22185;DHT22;11258;52.516;13.318;2022-12-18T10:58:18;-4.10;99.90
22185;DHT22;11258;52.516;13.318;2022-12-18T11:01:05;-4.20;99.90
22185;DHT22;11258;52.516;13.318;2022-12-18T11:03:37;-4.10;99.90
22185;DHT22;11258;52.516;13.318;2022-12-18T11:06:09;-4.00;99.90
22185;DHT22;11258;52.516;13.318;2022-12-18T11:08:35;-3.90;99.90
22185;DHT22;11258;52.516;13.318;2022-12-18T11:11:02;-3.80;99.90
22185;DHT22;11258;52.516;13.318;2022-12-18T11:13:29;-3.80;99.90
22185;DHT22;11258;52.516;13.318;2022-12-18T11:15:56;-3.80;99.90
22185;DHT22;11258;52.516;13.318;2022-12-18T11:18:29;-3.70;99.90
22185;DHT22;11258;52.516;13.318;2022-12-18T11:21:07;-3.60;99.90
22185;DHT22;11258;52.516;13.318;2022-12-18T11:23:34;-3.70;99.90
22185;DHT22;11258;52.516;13.318;2022-12-18T11:26:03;-3.70;99.90
22185;DHT22;11258;52.516;13.318;2022-12-18T11:28:39;-3.80;99.90
22185;DHT22;11258;52.516;13.318;2022-12-18T11:31:25;-3.70;99.90
22185;DHT22;11258;52.516;13.318;2022-12-18T11:36:40;-3.70;99.90
22185;DHT22;11258;52.516;13.318;2022-12-18T11:41:56;-3.70;99.90
22185;DHT22;11258;52.516;13.318;2022-12-18T11:50:13;-3.90;99.90
22185;DHT22;11258;52.516;13.318;2022-12-18T11:52:40;-3.90;99.90
22185;DHT22;11258;52.516;13.318;2022-12-18T11:55:22;-4.00;99.90
22185;DHT22;11258;52.516;13.318;2022-12-18T12:00:25;-3.90;99.90
22185;DHT22;11258;52.516;13.318;2022-12-18T12:08:23;-3.80;99.90
22185;DHT22;11258;52.516;13.318;2022-12-18T12:13:33;-3.80;99.90
22185;DHT22;11258;52.516;13.318;2022-12-18T12:21:55;-3.90;99.90
22185;DHT22;11258;52.516;13.318;2022-12-18T12:24:39;-3.90;99.90
22185;DHT22;11258;52.516;13.318;2022-12-18T12:27:33;-3.80;99.90
22185;DHT22;11258;52.516;13.318;2022-12-18T12:30:13;-3.80;99.90
22185;DHT22;11258;52.516;13.318;2022-12-18T12:33:03;-3.70;99.90
22185;DHT22;11258;52.516;13.318;2022-12-18T12:35:52;-3.70;99.90
22185;DHT22;11258;52.516;13.318;2022-12-18T12:38:54;-3.70;99.90
22185;DHT22;11258;52.516;13.318;2022-12-18T12:41:24;-3.70;99.90
22185;DHT22;11258;52.516;13.318;2022-12-18T12:44:29;-3.60;99.90
22185;DHT22;11258;52.516;13.318;2022-12-18T12:46:59;-3.70;99.90
22185;DHT22;11258;52.516;13.318;2022-12-18T12:49:30;-3.60;99.90
22185;DHT22;11258;52.516;13.318;2022-12-18T12:52:15;-3.60;99.90
22185;DHT22;11258;52.516;13.318;2022-12-18T12:54:42;-3.50;99.90
22185;DHT22;11258;52.516;13.318;2022-12-18T13:02:56;-3.60;99.90
22185;DHT22;11258;52.516;13.318;2022-12-18T13:05:53;-3.60;99.90
22185;DHT22;11258;52.516;13.318;2022-12-18T13:08:31;-3.70;99.90
22185;DHT22;11258;52.516;13.318;2022-12-18T13:10:58;-3.70;99.90
22185;DHT22;11258;52.516;13.318;2022-12-18T13:13:52;-3.60;99.90
22185;DHT22;11258;52.516;13.318;2022-12-18T13:16:19;-3.60;99.90
22185;DHT22;11258;52.516;13.318;2022-12-18T13:18:56;-3.50;99.90
22185;DHT22;11258;52.516;13.318;2022-12-18T13:21:30;-3.50;99.90
22185;DHT22;11258;52.516;13.318;2022-12-18T13:23:56;-3.50;99.90
22185;DHT22;11258;52.516;13.318;2022-12-18T13:26:39;-3.40;99.90
22185;DHT22;11258;52.516;13.318;2022-12-18T13:29:04;-3.40;99.90
22185;DHT22;11258;52.516;13.318;2022-12-18T13:34:24;-3.50;99.90
22185;DHT22;11258;52.516;13.318;2022-12-18T13:36:53;-3.50;99.90
22185;DHT22;11258;52.516;13.318;2022-12-18T13:46:56;-3.50;99.90
22185;DHT22;11258;52.516;13.318;2022-12-18T13:49:41;-3.40;99.90
22185;DHT22;11258;52.516;13.318;2022-12-18T13:52:17;-3.50;99.90
22185;DHT22;11258;52.516;13.318;2022-12-18T13:54:53;-3.50;99.90
22185;DHT22;11258;52.516;13.318;2022-12-18T13:57:36;-3.40;99.90
22185;DHT22;11258;52.516;13.318;2022-12-18T14:00:26;-3.40;99.90
22185;DHT22;11258;52.516;13.318;2022-12-18T14:02:54;-3.30;99.90
22185;DHT22;11258;52.516;13.318;2022-12-18T14:05:24;-3.30;99.90
22185;DHT22;11258;52.516;13.318;2022-12-18T14:07:50;-3.40;99.90
22185;DHT22;11258;52.516;13.318;2022-12-18T14:10:17;-3.50;99.90
22185;DHT22;11258;52.516;13.318;2022-12-18T14:12:47;-3.60;99.90
22185;DHT22;11258;52.516;13.318;2022-12-18T14:18:02;-3.50;99.90
22185;DHT22;11258;52.516;13.318;2022-12-18T14:20:32;-3.50;99.90
22185;DHT22;11258;52.516;13.318;2022-12-18T14:22:59;-3.40;99.90
22185;DHT22;11258;52.516;13.318;2022-12-18T14:25:30;-3.50;99.90
22185;DHT22;11258;52.516;13.318;2022-12-18T14:30:40;-3.40;99.90
22185;DHT22;11258;52.516;13.318;2022-12-18T14:33:11;-3.50;99.90
22185;DHT22;11258;52.516;13.318;2022-12-18T14:35:42;-3.60;99.90
22185;DHT22;11258;52.516;13.318;2022-12-18T14:41:01;-3.60;99.90
22185;DHT22;11258;52.516;13.318;2022-12-18T14:43:31;-3.70;99.90
22185;DHT22;11258;52.516;13.318;2022-12-18T14:45:57;-3.70;99.90
22185;DHT22;11258;52.516;13.318;2022-12-18T14:48:41;-3.70;99.90
22185;DHT22;11258;52.516;13.318;2022-12-18T14:51:15;-3.80;99.90
22185;DHT22;11258;52.516;13.318;2022-12-18T14:54:14;-3.80;99.90
22185;DHT22;11258;52.516;13.318;2022-12-18T14:56:51;-3.80;99.90
22185;DHT22;11258;52.516;13.318;2022-12-18T14:59:25;-3.70;99.90
22185;DHT22;11258;52.516;13.318;2022-12-18T15:01:58;-3.70;99.90
22185;DHT22;11258;52.516;13.318;2022-12-18T15:04:31;-3.60;99.90
22185;DHT22;11258;52.516;13.318;2022-12-18T15:07:22;-3.60;99.90
22185;DHT22;11258;52.516;13.318;2022-12-18T15:10:13;-3.50;99.90
22185;DHT22;11258;52.516;13.318;2022-12-18T15:12:48;-3.50;99.90
22185;DHT22;11258;52.516;13.318;2022-12-18T15:20:56;-3.80;99.90
22185;DHT22;11258;52.516;13.318;2022-12-18T15:23:23;-3.80;99.90
22185;DHT22;11258;52.516;13.318;2022-12-18T15:26:10;-3.80;99.90
22185;DHT22;11258;52.516;13.318;2022-12-18T15:28:38;-3.80;99.90
22185;DHT22;11258;52.516;13.318;2022-12-18T15:31:28;-3.80;99.90
22185;DHT22;11258;52.516;13.318;2022-12-18T15:36:22;-3.80;99.90
22185;DHT22;11258;52.516;13.318;2022-12-18T15:38:49;-3.70;99.90
22185;DHT22;11258;52.516;13.318;2022-12-18T15:41:17;-3.70;99.90
22185;DHT22;11258;52.516;13.318;2022-12-18T15:43:43;-3.60;99.90
22185;DHT22;11258;52.516;13.318;2022-12-18T15:46:17;-3.80;99.90
22185;DHT22;11258;52.516;13.318;2022-12-18T15:48:44;-3.80;99.90
22185;DHT22;11258;52.516;13.318;2022-12-18T15:51:20;-3.80;99.90
22185;DHT22;11258;52.516;13.318;2022-12-18T15:53:47;-4.00;99.90
22185;DHT22;11258;52.516;13.318;2022-12-18T15:56:15;-4.00;99.90
22185;DHT22;11258;52.516;13.318;2022-12-18T15:59:00;-4.00;99.90
22185;DHT22;11258;52.516;13.318;2022-12-18T16:01:28;-4.00;99.90
22185;DHT22;11258;52.516;13.318;2022-12-18T16:03:54;-3.90;99.90
22185;DHT22;11258;52.516;13.318;2022-12-18T16:06:20;-3.90;99.90
22185;DHT22;11258;52.516;13.318;2022-12-18T16:08:46;-3.90;99.90
22185;DHT22;11258;52.516;13.318;2022-12-18T16:11:25;-3.80;99.90
22185;DHT22;11258;52.516;13.318;2022-12-18T16:16:46;-4.00;99.90
22185;DHT22;11258;52.516;13.318;2022-12-18T16:19:12;-4.00;99.90
22185;DHT22;11258;52.516;13.318;2022-12-18T16:21:38;-4.00;99.90
22185;DHT22;11258;52.516;13.318;2022-12-18T16:24:03;-3.90;99.90
22185;DHT22;11258;52.516;13.318;2022-12-18T16:26:32;-4.00;99.90
22185;DHT22;11258;52.516;13.318;2022-12-18T16:28:57;-4.00;99.90
22185;DHT22;11258;52.516;13.318;2022-12-18T16:31:23;-3.90;99.90
22185;DHT22;11258;52.516;13.318;2022-12-18T16:33:48;-3.90;99.90
22185;DHT22;11258;52.516;13.318;2022-12-18T16:36:14;-3.90;99.90
22185;DHT22;11258;52.516;13.318;2022-12-18T16:38:40;-3.90;99.90
22185;DHT22;11258;52.516;13.318;2022-12-18T16:41:19;-3.80;99.90
22185;DHT22;11258;52.516;13.318;2022-12-18T16:43:57;-3.80;99.90
22185;DHT22;11258;52.516;13.318;2022-12-18T16:46:22;-3.80;99.90
22185;DHT22;11258;52.516;13.318;2022-12-18T16:48:48;-3.80;99.90
22185;DHT22;11258;52.516;13.318;2022-12-18T16:51:14;-3.80;99.90
22185;DHT22;11258;52.516;13.318;2022-12-18T16:53:39;-3.80;99.90
22185;DHT22;11258;52.516;13.318;2022-12-18T16:56:05;-3.80;99.90
22185;DHT22;11258;52.516;13.318;2022-12-18T16:58:31;-3.80;99.90
22185;DHT22;11258;52.516;13.318;2022-12-18T17:00:56;-3.80;99.90
22185;DHT22;11258;52.516;13.318;2022-12-18T17:03:22;-3.80;99.90
22185;DHT22;11258;52.516;13.318;2022-12-18T17:05:48;-3.80;99.90
22185;DHT22;11258;52.516;13.318;2022-12-18T17:08:13;-3.80;99.90
22185;DHT22;11258;52.516;13.318;2022-12-18T17:10:39;-3.90;99.90